createdAt,value
2022-10-09T00:00:24.289Z,94.23
2022-10-09T00:05:24.215Z,93.97
2022-10-09T00:10:24.205Z,93.97
2022-10-09T00:15:24.114Z,93.87
2022-10-09T00:20:24.059Z,93.97
2022-10-09T00:25:24.168Z,94.28
2022-10-09T00:30:23.967Z,94.38
2022-10-09T00:35:24.055Z,94.48
2022-10-09T00:40:23.885Z,94.48
2022-10-09T00:45:24.958Z,94.69
2022-10-09T00:50:23.885Z,94.59
2022-10-09T00:55:23.696Z,94.53
2022-10-09T01:00:23.630Z,94.53
2022-10-09T01:05:23.563Z,94.84
2022-10-09T01:10:23.550Z,94.43
2022-10-09T01:15:23.654Z,94.32
2022-10-09T01:20:23.474Z,94.06
2022-10-09T01:25:23.351Z,94.06
2022-10-09T01:30:23.393Z,94.57
2022-10-09T01:35:23.368Z,94.72
2022-10-09T01:40:23.275Z,94.62
2022-10-09T01:45:23.232Z,94.82
2022-10-09T01:50:23.296Z,94.82
2022-10-09T01:55:23.219Z,94.82
2022-10-09T02:00:23.287Z,95.14
2022-10-09T02:05:23.006Z,95.14
2022-10-09T02:10:23.889Z,95.34
2022-10-09T02:15:22.821Z,95.34
2022-10-09T02:20:22.819Z,95.03
2022-10-09T02:25:22.708Z,94.82
2022-10-09T02:30:22.659Z,94.93
2022-10-09T02:35:22.580Z,95.03
2022-10-09T02:40:22.553Z,95.14
2022-10-09T02:45:22.526Z,94.82
2022-10-09T02:50:22.626Z,94.82
2022-10-09T02:55:23.531Z,94.76
2022-10-09T03:00:22.486Z,94.76
2022-10-09T03:05:22.349Z,94.76
2022-10-09T03:10:23.417Z,94.87
2022-10-09T03:15:22.275Z,95.18
2022-10-09T03:20:22.264Z,95.18
2022-10-09T03:25:22.111Z,95.28
2022-10-09T03:30:22.159Z,95.18
2022-10-09T03:35:21.955Z,95.28
2022-10-09T03:40:21.872Z,95.12
2022-10-09T03:45:21.833Z,94.91
2022-10-09T03:50:21.825Z,94.64
2022-10-09T03:55:21.760Z,94.74
2022-10-09T04:00:21.702Z,94.64
2022-10-09T04:05:21.767Z,94.85
2022-10-09T04:10:22.640Z,94.79
2022-10-09T04:15:21.648Z,94.89
2022-10-09T04:20:21.502Z,95.47
2022-10-09T04:25:21.549Z,95.26
2022-10-09T04:30:21.513Z,95.37
2022-10-09T04:35:21.315Z,95.47
2022-10-09T04:40:21.273Z,95.68
2022-10-09T04:45:21.230Z,95.26
2022-10-09T04:50:21.160Z,95.68
2022-10-09T04:55:21.113Z,94.89
2022-10-09T05:00:21.185Z,94.68
2022-10-09T05:05:20.976Z,94.94
2022-10-09T05:10:21.083Z,95.25
2022-10-09T05:15:20.958Z,95.36
2022-10-09T05:20:20.889Z,95.36
2022-10-09T05:25:20.979Z,95.56
2022-10-09T05:30:21.782Z,95.46
2022-10-09T05:35:21.008Z,95.46
2022-10-09T05:40:21.512Z,95.40
2022-10-09T05:45:20.664Z,95.61
2022-10-09T05:50:20.613Z,95.71
2022-10-09T05:55:20.550Z,95.71
2022-10-09T06:00:20.519Z,95.81
2022-10-09T06:05:20.518Z,95.92
2022-10-09T06:10:20.263Z,96.02
2022-10-09T06:15:20.487Z,95.92
2022-10-09T06:20:20.503Z,95.92
2022-10-09T06:25:21.235Z,96.12
2022-10-09T06:30:20.064Z,96.02
2022-10-09T06:57:28.184Z,96.83
2022-10-09T07:02:27.862Z,96.31
2022-10-09T07:07:27.783Z,96.27
2022-10-09T07:12:27.691Z,95.92
2022-10-09T07:17:27.687Z,95.61
2022-10-09T07:22:27.712Z,96.19
2022-10-09T07:27:27.493Z,96.98
2022-10-09T07:32:27.444Z,96.89
2022-10-09T07:37:27.456Z,96.49
2022-10-09T07:42:27.365Z,96.20
2022-10-09T07:47:27.274Z,95.03
2022-10-09T07:52:27.365Z,93.44
2022-10-09T07:57:27.278Z,90.95
2022-10-09T08:02:27.165Z,89.84
2022-10-09T08:07:30.311Z,88.02
2022-10-09T08:12:28.111Z,86.91
2022-10-09T08:17:27.120Z,86.63
2022-10-09T08:22:28.042Z,85.77
2022-10-09T08:27:26.915Z,82.15
2022-10-09T08:32:27.002Z,78.57
2022-10-09T08:37:26.909Z,78.26
2022-10-09T08:42:28.233Z,76.25
2022-10-09T08:47:27.770Z,73.50
2022-10-09T08:52:26.732Z,73.74
2022-10-09T08:57:26.490Z,71.47
2022-10-09T09:02:26.497Z,71.80
2022-10-09T09:07:26.418Z,71.23
2022-10-09T09:12:26.370Z,69.40
2022-10-09T09:17:26.294Z,69.07
2022-10-09T09:22:26.205Z,68.70
2022-10-09T09:27:26.157Z,67.58
2022-10-09T09:32:26.113Z,66.30
2022-10-09T09:37:26.092Z,65.48
2022-10-09T09:42:26.121Z,65.66
2022-10-09T09:47:25.932Z,64.58
2022-10-09T09:52:25.870Z,65.87
2022-10-09T09:57:34.667Z,63.04
2022-10-09T10:02:25.802Z,62.12
2022-10-09T10:07:25.694Z,63.92
2022-10-09T10:12:25.649Z,62.14
2022-10-09T10:17:25.604Z,61.23
2022-10-09T10:22:25.522Z,60.49
2022-10-09T10:27:25.463Z,58.37
2022-10-09T10:32:25.429Z,58.42
2022-10-09T10:37:25.447Z,57.81
2022-10-09T10:42:27.637Z,57.71
2022-10-09T10:47:25.318Z,57.76
2022-10-09T10:52:25.198Z,53.72
2022-10-09T10:57:25.146Z,55.57
2022-10-09T11:02:25.088Z,56.55
2022-10-09T11:07:25.038Z,56.68
2022-10-09T11:12:46.912Z,54.46
2022-10-09T11:17:25.954Z,54.16
2022-10-09T11:22:24.892Z,54.13
2022-10-09T11:27:24.848Z,53.96
2022-10-09T11:32:24.898Z,54.13
2022-10-09T11:37:24.794Z,56.17
2022-10-09T11:42:24.834Z,53.05
2022-10-09T11:47:24.690Z,54.31
2022-10-09T11:52:24.628Z,54.58
2022-10-09T11:57:24.560Z,52.34
2022-10-09T12:02:24.620Z,53.05
2022-10-09T12:07:24.471Z,52.24
2022-10-09T12:12:24.410Z,52.62
2022-10-09T12:17:24.369Z,52.31
2022-10-09T12:22:24.295Z,53.25
2022-10-09T12:27:24.223Z,51.73
2022-10-09T12:32:25.204Z,51.03
2022-10-09T12:37:24.121Z,54.23
2022-10-09T12:42:24.155Z,53.02
2022-10-09T12:47:23.996Z,53.02
2022-10-09T12:52:23.967Z,53.34
2022-10-09T12:57:26.867Z,54.48
2022-10-09T13:02:24.947Z,53.67
2022-10-09T13:07:23.807Z,55.66
2022-10-09T13:12:23.867Z,54.00
2022-10-09T13:17:23.719Z,55.01
2022-10-09T13:22:23.621Z,54.43
2022-10-09T13:27:23.580Z,55.01
2022-10-09T13:32:23.601Z,55.04
2022-10-09T13:37:23.532Z,53.52
2022-10-09T13:42:23.552Z,55.14
2022-10-09T13:47:24.609Z,55.34
2022-10-09T13:52:23.290Z,55.27
2022-10-09T13:57:23.312Z,56.48
2022-10-09T14:02:23.256Z,55.67
2022-10-09T14:07:23.179Z,55.77
2022-10-09T14:12:23.170Z,57.29
2022-10-09T14:17:23.020Z,56.10
2022-10-09T14:22:22.916Z,56.30
2022-10-09T14:27:23.830Z,57.72
2022-10-09T14:32:22.856Z,57.21
2022-10-09T14:37:41.232Z,57.65
2022-10-09T14:42:23.755Z,56.73
2022-10-09T14:47:22.835Z,56.02
2022-10-09T14:52:22.643Z,57.17
2022-10-09T14:57:22.623Z,55.75
2022-10-09T15:02:22.566Z,56.63
2022-10-09T15:07:22.547Z,57.87
2022-10-09T15:12:22.485Z,56.69
2022-10-09T15:17:22.417Z,58.20
2022-10-09T15:22:22.381Z,59.05
2022-10-09T15:27:22.262Z,58.13
2022-10-09T15:32:22.191Z,58.13
2022-10-09T15:37:22.260Z,56.95
2022-10-09T15:42:22.141Z,56.54
2022-10-09T15:47:39.253Z,57.04
2022-10-09T15:52:22.927Z,56.67
2022-10-09T16:00:04.423Z,56.97
2022-10-09T16:05:04.433Z,59.23
2022-10-09T16:10:04.378Z,60.88
2022-10-09T16:15:04.317Z,62.13
2022-10-09T16:20:04.277Z,61.14
2022-10-09T16:25:04.919Z,63.58
2022-10-09T16:30:04.256Z,66.05
2022-10-09T16:35:05.106Z,65.88
2022-10-09T16:40:03.997Z,65.97
2022-10-09T16:45:04.387Z,66.58
2022-10-09T16:50:04.008Z,66.41
2022-10-09T16:55:03.838Z,67.87
2022-10-09T17:00:03.891Z,68.71
2022-10-09T17:05:03.865Z,69.46
2022-10-09T17:10:03.649Z,70.10
2022-10-09T17:15:03.614Z,71.67
2022-10-09T17:20:03.715Z,73.03
2022-10-09T17:25:03.581Z,73.54
2022-10-09T17:30:03.487Z,74.69
2022-10-09T17:35:03.429Z,74.42
2022-10-09T17:40:03.427Z,75.58
2022-10-09T17:45:03.312Z,75.99
2022-10-09T17:50:03.321Z,76.70
2022-10-09T17:55:03.233Z,77.56
2022-10-09T18:00:03.123Z,77.56
2022-10-09T18:05:03.202Z,78.52
2022-10-09T18:10:03.002Z,78.75
2022-10-09T18:15:03.993Z,78.86
2022-10-09T18:20:03.017Z,79.57
2022-10-09T18:25:02.853Z,79.50
2022-10-09T18:30:02.803Z,80.53
2022-10-09T18:35:02.727Z,80.36
2022-10-09T18:40:02.695Z,81.18
2022-10-09T18:45:02.826Z,81.12
2022-10-09T18:50:02.654Z,81.52
2022-10-09T18:55:02.615Z,82.14
2022-10-09T19:00:02.451Z,82.49
2022-10-09T19:05:02.474Z,82.79
2022-10-09T19:10:02.344Z,83.34
2022-10-09T19:15:02.451Z,84.17
2022-10-09T19:20:02.411Z,84.82
2022-10-09T19:25:03.289Z,85.06
2022-10-09T19:30:02.132Z,85.27
2022-10-09T19:35:02.092Z,86.33
2022-10-09T19:40:02.081Z,87.16
2022-10-09T19:45:02.108Z,87.92
2022-10-09T19:50:02.078Z,88.23
2022-10-09T19:55:02.061Z,88.02
2022-10-09T20:00:01.845Z,88.17
2022-10-09T20:05:01.744Z,88.57
2022-10-09T20:10:01.812Z,88.27
2022-10-09T20:15:01.624Z,88.98
2022-10-09T20:20:01.662Z,88.62
2022-10-09T20:25:01.620Z,89.03
2022-10-09T20:30:01.529Z,89.48
2022-10-09T20:35:01.567Z,89.89
2022-10-09T20:40:01.434Z,89.79
2022-10-09T20:45:01.372Z,90.24
2022-10-09T20:50:01.406Z,90.34
2022-10-09T20:55:01.251Z,90.86
2022-10-09T21:00:01.167Z,90.81
2022-10-09T21:05:01.287Z,90.06
2022-10-09T21:10:01.118Z,88.82
2022-10-09T21:15:01.055Z,87.75
2022-10-09T21:20:00.967Z,85.97
2022-10-09T21:25:00.909Z,84.80
2022-10-09T21:30:00.783Z,83.83
2022-10-09T21:35:00.832Z,83.53
2022-10-09T21:40:00.775Z,82.87
2022-10-09T21:45:00.660Z,82.87
2022-10-09T21:50:01.751Z,81.81
2022-10-09T21:55:00.646Z,81.20
2022-10-09T22:00:00.562Z,80.85
2022-10-09T22:05:00.420Z,79.58
2022-10-09T22:10:00.404Z,79.17
2022-10-09T22:15:00.515Z,78.35
2022-10-09T22:20:00.463Z,77.50
2022-10-09T22:25:00.301Z,75.99
2022-10-09T22:30:00.248Z,76.40
2022-10-09T22:35:00.173Z,76.34
2022-10-09T22:40:00.091Z,75.27
2022-10-09T22:45:01.038Z,73.36
2022-10-09T22:49:59.917Z,73.16
2022-10-09T22:55:00.011Z,73.81
2022-10-09T22:59:59.799Z,73.71
2022-10-09T23:04:59.781Z,72.86
2022-10-09T23:09:59.727Z,72.45
2022-10-09T23:15:00.729Z,70.85
2022-10-09T23:19:59.726Z,71.91
2022-10-09T23:24:59.635Z,73.16
2022-10-09T23:30:00.525Z,73.50
2022-10-09T23:34:59.450Z,72.86
2022-10-09T23:39:59.633Z,72.75
2022-10-09T23:45:00.436Z,73.50
2022-10-09T23:49:59.451Z,73.50
2022-10-09T23:54:59.235Z,73.50
2022-10-09T23:59:59.181Z,74.11
